sensor_id;sensor_type;location;lat;lon;timestamp;temperature;humidity
67050;DHT22;53955;52.442;13.284;2023-04-06T00:00:14;7.10;45.20
67050;DHT22;53955;52.442;13.284;2023-04-06T00:02:41;7.10;45.20
67050;DHT22;53955;52.442;13.284;2023-04-06T00:05:08;7.10;45.40
67050;DHT22;53955;52.442;13.284;2023-04-06T00:07:34;7.20;45.50
67050;DHT22;53955;52.442;13.284;2023-04-06T00:10:02;7.20;45.60
67050;DHT22;53955;52.442;13.284;2023-04-06T00:12:28;7.20;45.50
67050;DHT22;53955;52.442;13.284;2023-04-06T00:14:55;7.10;45.70
67050;DHT22;53955;52.442;13.284;2023-04-06T00:17:23;7.10;45.50
67050;DHT22;53955;52.442;13.284;2023-04-06T00:19:50;7.10;45.90
67050;DHT22;53955;52.442;13.284;2023-04-06T00:22:16;7.20;45.80
67050;DHT22;53955;52.442;13.284;2023-04-06T00:24:43;7.10;46.20
67050;DHT22;53955;52.442;13.284;2023-04-06T00:27:09;7.20;45.40
67050;DHT22;53955;52.442;13.284;2023-04-06T00:29:36;7.20;46.00
67050;DHT22;53955;52.442;13.284;2023-04-06T00:32:04;7.20;46.10
67050;DHT22;53955;52.442;13.284;2023-04-06T00:34:32;7.10;46.20
67050;DHT22;53955;52.442;13.284;2023-04-06T00:36:58;7.00;46.10
67050;DHT22;53955;52.442;13.284;2023-04-06T00:39:25;7.10;45.50
67050;DHT22;53955;52.442;13.284;2023-04-06T00:41:52;7.00;46.50
67050;DHT22;53955;52.442;13.284;2023-04-06T00:44:20;7.00;45.50
67050;DHT22;53955;52.442;13.284;2023-04-06T00:46:47;7.00;45.30
67050;DHT22;53955;52.442;13.284;2023-04-06T00:49:14;7.10;44.30
67050;DHT22;53955;52.442;13.284;2023-04-06T00:51:42;7.10;44.60
67050;DHT22;53955;52.442;13.284;2023-04-06T00:54:09;7.10;44.70
67050;DHT22;53955;52.442;13.284;2023-04-06T00:56:35;7.00;44.30
67050;DHT22;53955;52.442;13.284;2023-04-06T00:59:02;6.90;45.30
67050;DHT22;53955;52.442;13.284;2023-04-06T01:01:29;6.80;45.40
67050;DHT22;53955;52.442;13.284;2023-04-06T01:03:57;6.80;45.30
67050;DHT22;53955;52.442;13.284;2023-04-06T01:06:24;6.90;45.40
67050;DHT22;53955;52.442;13.284;2023-04-06T01:08:52;6.80;44.50
67050;DHT22;53955;52.442;13.284;2023-04-06T01:11:18;6.80;44.40
67050;DHT22;53955;52.442;13.284;2023-04-06T01:13:45;6.70;45.00
67050;DHT22;53955;52.442;13.284;2023-04-06T01:16:12;6.80;45.00
67050;DHT22;53955;52.442;13.284;2023-04-06T01:18:39;7.10;44.70
67050;DHT22;53955;52.442;13.284;2023-04-06T01:21:05;7.00;44.80
67050;DHT22;53955;52.442;13.284;2023-04-06T01:23:35;6.90;44.90
67050;DHT22;53955;52.442;13.284;2023-04-06T01:26:02;6.90;44.70
67050;DHT22;53955;52.442;13.284;2023-04-06T01:28:28;6.70;44.90
67050;DHT22;53955;52.442;13.284;2023-04-06T01:30:55;6.70;45.30
67050;DHT22;53955;52.442;13.284;2023-04-06T01:33:21;6.80;45.40
67050;DHT22;53955;52.442;13.284;2023-04-06T01:35:48;6.70;45.80
67050;DHT22;53955;52.442;13.284;2023-04-06T01:38:14;6.70;45.60
67050;DHT22;53955;52.442;13.284;2023-04-06T01:40:42;6.60;46.40
67050;DHT22;53955;52.442;13.284;2023-04-06T01:43:09;6.50;46.60
67050;DHT22;53955;52.442;13.284;2023-04-06T01:45:35;6.50;46.30
67050;DHT22;53955;52.442;13.284;2023-04-06T01:48:02;6.50;45.90
67050;DHT22;53955;52.442;13.284;2023-04-06T01:50:29;6.50;46.30
67050;DHT22;53955;52.442;13.284;2023-04-06T01:52:55;6.40;46.00
67050;DHT22;53955;52.442;13.284;2023-04-06T01:55:22;6.40;46.60
67050;DHT22;53955;52.442;13.284;2023-04-06T01:57:50;6.50;46.90
67050;DHT22;53955;52.442;13.284;2023-04-06T02:00:17;6.30;46.70
67050;DHT22;53955;52.442;13.284;2023-04-06T02:02:44;6.20;46.40
67050;DHT22;53955;52.442;13.284;2023-04-06T02:05:10;6.10;46.80
67050;DHT22;53955;52.442;13.284;2023-04-06T02:07:37;6.20;46.30
67050;DHT22;53955;52.442;13.284;2023-04-06T02:10:04;6.10;46.60
67050;DHT22;53955;52.442;13.284;2023-04-06T02:12:37;6.20;47.20
67050;DHT22;53955;52.442;13.284;2023-04-06T02:15:05;6.00;46.90
67050;DHT22;53955;52.442;13.284;2023-04-06T02:17:32;6.00;46.60
67050;DHT22;53955;52.442;13.284;2023-04-06T02:19:59;5.80;47.40
67050;DHT22;53955;52.442;13.284;2023-04-06T02:22:25;5.80;47.60
67050;DHT22;53955;52.442;13.284;2023-04-06T02:24:52;5.80;48.20
67050;DHT22;53955;52.442;13.284;2023-04-06T02:27:18;5.80;48.40
67050;DHT22;53955;52.442;13.284;2023-04-06T02:29:45;5.90;47.80
67050;DHT22;53955;52.442;13.284;2023-04-06T02:32:13;5.80;47.60
67050;DHT22;53955;52.442;13.284;2023-04-06T02:34:39;5.50;47.90
67050;DHT22;53955;52.442;13.284;2023-04-06T02:37:06;5.60;47.80
67050;DHT22;53955;52.442;13.284;2023-04-06T02:39:32;5.60;48.20
67050;DHT22;53955;52.442;13.284;2023-04-06T02:41:59;5.50;48.10
67050;DHT22;53955;52.442;13.284;2023-04-06T02:44:26;5.50;48.50
67050;DHT22;53955;52.442;13.284;2023-04-06T02:46:52;5.40;48.80
67050;DHT22;53955;52.442;13.284;2023-04-06T02:49:20;5.50;48.60
67050;DHT22;53955;52.442;13.284;2023-04-06T02:51:47;5.20;48.90
67050;DHT22;53955;52.442;13.284;2023-04-06T02:54:14;5.20;49.40
67050;DHT22;53955;52.442;13.284;2023-04-06T02:56:40;5.30;48.80
67050;DHT22;53955;52.442;13.284;2023-04-06T02:59:07;5.40;48.20
67050;DHT22;53955;52.442;13.284;2023-04-06T03:01:34;5.30;48.40
67050;DHT22;53955;52.442;13.284;2023-04-06T03:04:01;5.40;48.70
67050;DHT22;53955;52.442;13.284;2023-04-06T03:06:29;5.40;48.60
67050;DHT22;53955;52.442;13.284;2023-04-06T03:08:56;5.30;49.10
67050;DHT22;53955;52.442;13.284;2023-04-06T03:11:23;5.30;48.40
67050;DHT22;53955;52.442;13.284;2023-04-06T03:13:51;5.50;48.70
67050;DHT22;53955;52.442;13.284;2023-04-06T03:16:17;5.40;49.00
67050;DHT22;53955;52.442;13.284;2023-04-06T03:18:46;5.40;49.20
67050;DHT22;53955;52.442;13.284;2023-04-06T03:21:13;5.30;49.50
67050;DHT22;53955;52.442;13.284;2023-04-06T03:23:42;5.40;49.20
67050;DHT22;53955;52.442;13.284;2023-04-06T03:26:08;5.10;48.80
67050;DHT22;53955;52.442;13.284;2023-04-06T03:28:35;5.50;68.50
67050;DHT22;53955;52.442;13.284;2023-04-06T03:31:02;7.40;56.70
67050;DHT22;53955;52.442;13.284;2023-04-06T03:33:28;7.10;45.50
67050;DHT22;53955;52.442;13.284;2023-04-06T03:35:55;6.70;45.70
67050;DHT22;53955;52.442;13.284;2023-04-06T03:38:21;6.20;46.50
67050;DHT22;53955;52.442;13.284;2023-04-06T03:40:49;5.70;47.80
67050;DHT22;53955;52.442;13.284;2023-04-06T03:43:16;5.50;49.10
67050;DHT22;53955;52.442;13.284;2023-04-06T03:45:42;5.30;48.50
67050;DHT22;53955;52.442;13.284;2023-04-06T03:48:09;5.30;48.60
67050;DHT22;53955;52.442;13.284;2023-04-06T03:50:35;5.20;49.50
67050;DHT22;53955;52.442;13.284;2023-04-06T03:53:02;5.30;49.20
67050;DHT22;53955;52.442;13.284;2023-04-06T03:55:29;5.20;49.90
67050;DHT22;53955;52.442;13.284;2023-04-06T03:57:57;5.20;49.80
67050;DHT22;53955;52.442;13.284;2023-04-06T04:00:24;5.30;49.60
67050;DHT22;53955;52.442;13.284;2023-04-06T04:02:51;5.20;49.30
67050;DHT22;53955;52.442;13.284;2023-04-06T04:05:17;5.10;49.50
67050;DHT22;53955;52.442;13.284;2023-04-06T04:07:44;5.10;49.40
67050;DHT22;53955;52.442;13.284;2023-04-06T04:10:10;4.90;49.60
67050;DHT22;53955;52.442;13.284;2023-04-06T04:12:37;4.80;49.70
67050;DHT22;53955;52.442;13.284;2023-04-06T04:15:06;4.80;50.10
67050;DHT22;53955;52.442;13.284;2023-04-06T04:17:32;4.80;49.60
67050;DHT22;53955;52.442;13.284;2023-04-06T04:19:59;4.60;50.50
67050;DHT22;53955;52.442;13.284;2023-04-06T04:22:25;4.60;51.00
67050;DHT22;53955;52.442;13.284;2023-04-06T04:24:53;4.80;50.10
67050;DHT22;53955;52.442;13.284;2023-04-06T04:27:20;4.60;50.10
67050;DHT22;53955;52.442;13.284;2023-04-06T04:29:47;4.70;49.90
67050;DHT22;53955;52.442;13.284;2023-04-06T04:32:15;4.80;50.50
67050;DHT22;53955;52.442;13.284;2023-04-06T04:34:41;5.00;50.30
67050;DHT22;53955;52.442;13.284;2023-04-06T04:37:08;5.00;50.00
67050;DHT22;53955;52.442;13.284;2023-04-06T04:39:34;5.10;48.90
67050;DHT22;53955;52.442;13.284;2023-04-06T04:42:01;5.00;50.00
67050;DHT22;53955;52.442;13.284;2023-04-06T04:44:28;5.20;49.40
67050;DHT22;53955;52.442;13.284;2023-04-06T04:46:54;5.20;50.00
67050;DHT22;53955;52.442;13.284;2023-04-06T04:49:23;5.00;49.70
67050;DHT22;53955;52.442;13.284;2023-04-06T04:51:50;4.70;50.00
67050;DHT22;53955;52.442;13.284;2023-04-06T04:54:18;4.90;50.30
67050;DHT22;53955;52.442;13.284;2023-04-06T04:56:44;4.80;50.10
67050;DHT22;53955;52.442;13.284;2023-04-06T04:59:11;4.80;50.50
67050;DHT22;53955;52.442;13.284;2023-04-06T05:01:38;4.70;50.10
67050;DHT22;53955;52.442;13.284;2023-04-06T05:04:04;4.90;50.40
67050;DHT22;53955;52.442;13.284;2023-04-06T05:06:32;5.00;49.70
67050;DHT22;53955;52.442;13.284;2023-04-06T05:08:59;4.80;49.90
67050;DHT22;53955;52.442;13.284;2023-04-06T05:11:25;5.00;49.90
67050;DHT22;53955;52.442;13.284;2023-04-06T05:13:52;5.10;49.70
67050;DHT22;53955;52.442;13.284;2023-04-06T05:16:19;5.10;49.10
67050;DHT22;53955;52.442;13.284;2023-04-06T05:18:47;5.20;49.40
67050;DHT22;53955;52.442;13.284;2023-04-06T05:21:14;5.30;49.30
67050;DHT22;53955;52.442;13.284;2023-04-06T05:23:42;5.40;48.80
67050;DHT22;53955;52.442;13.284;2023-04-06T05:26:08;5.60;48.70
67050;DHT22;53955;52.442;13.284;2023-04-06T05:28:35;5.60;49.40
67050;DHT22;53955;52.442;13.284;2023-04-06T05:31:02;5.50;48.50
67050;DHT22;53955;52.442;13.284;2023-04-06T05:33:28;5.70;48.90
67050;DHT22;53955;52.442;13.284;2023-04-06T05:35:55;5.90;48.60
67050;DHT22;53955;52.442;13.284;2023-04-06T05:38:22;6.00;48.30
67050;DHT22;53955;52.442;13.284;2023-04-06T05:40:50;7.40;45.00
67050;DHT22;53955;52.442;13.284;2023-04-06T05:43:16;9.70;39.20
67050;DHT22;53955;52.442;13.284;2023-04-06T05:45:44;12.50;35.30
67050;DHT22;53955;52.442;13.284;2023-04-06T05:48:10;14.40;29.60
67050;DHT22;53955;52.442;13.284;2023-04-06T05:50:37;16.00;25.70
67050;DHT22;53955;52.442;13.284;2023-04-06T05:53:03;17.60;23.80
67050;DHT22;53955;52.442;13.284;2023-04-06T05:55:30;18.70;20.00
67050;DHT22;53955;52.442;13.284;2023-04-06T05:57:58;19.30;18.70
67050;DHT22;53955;52.442;13.284;2023-04-06T06:00:24;20.10;17.40
67050;DHT22;53955;52.442;13.284;2023-04-06T06:02:51;20.90;15.00
67050;DHT22;53955;52.442;13.284;2023-04-06T06:05:18;21.30;14.60
67050;DHT22;53955;52.442;13.284;2023-04-06T06:07:44;22.00;13.80
67050;DHT22;53955;52.442;13.284;2023-04-06T06:10:11;22.60;13.00
67050;DHT22;53955;52.442;13.284;2023-04-06T06:12:38;22.70;12.50
67050;DHT22;53955;52.442;13.284;2023-04-06T06:15:06;23.80;11.10
67050;DHT22;53955;52.442;13.284;2023-04-06T06:17:32;23.70;11.70
67050;DHT22;53955;52.442;13.284;2023-04-06T06:19:59;23.70;10.90
67050;DHT22;53955;52.442;13.284;2023-04-06T06:22:26;23.60;11.20
67050;DHT22;53955;52.442;13.284;2023-04-06T06:24:52;23.50;10.60
67050;DHT22;53955;52.442;13.284;2023-04-06T06:27:19;24.70;9.80
67050;DHT22;53955;52.442;13.284;2023-04-06T06:29:46;24.90;9.00
67050;DHT22;53955;52.442;13.284;2023-04-06T06:32:14;24.70;9.90
67050;DHT22;53955;52.442;13.284;2023-04-06T06:34:41;25.00;8.80
67050;DHT22;53955;52.442;13.284;2023-04-06T06:37:07;25.40;8.70
67050;DHT22;53955;52.442;13.284;2023-04-06T06:39:34;25.80;8.00
67050;DHT22;53955;52.442;13.284;2023-04-06T06:42:00;25.50;7.90
67050;DHT22;53955;52.442;13.284;2023-04-06T06:44:27;26.10;7.60
67050;DHT22;53955;52.442;13.284;2023-04-06T06:46:54;25.90;7.70
67050;DHT22;53955;52.442;13.284;2023-04-06T06:49:21;27.10;6.30
67050;DHT22;53955;52.442;13.284;2023-04-06T06:51:48;28.30;5.90
67050;DHT22;53955;52.442;13.284;2023-04-06T06:54:15;27.60;5.70
67050;DHT22;53955;52.442;13.284;2023-04-06T06:56:41;27.10;6.30
67050;DHT22;53955;52.442;13.284;2023-04-06T06:59:08;26.70;6.80
67050;DHT22;53955;52.442;13.284;2023-04-06T07:01:35;27.10;6.10
67050;DHT22;53955;52.442;13.284;2023-04-06T07:04:02;27.20;6.30
67050;DHT22;53955;52.442;13.284;2023-04-06T07:06:30;27.20;6.20
67050;DHT22;53955;52.442;13.284;2023-04-06T07:08:56;27.30;5.40
67050;DHT22;53955;52.442;13.284;2023-04-06T07:11:23;25.90;6.30
67050;DHT22;53955;52.442;13.284;2023-04-06T07:13:49;24.30;7.30
67050;DHT22;53955;52.442;13.284;2023-04-06T07:16:16;22.60;8.10
67050;DHT22;53955;52.442;13.284;2023-04-06T07:18:43;21.50;9.60
67050;DHT22;53955;52.442;13.284;2023-04-06T07:21:09;20.50;11.90
67050;DHT22;53955;52.442;13.284;2023-04-06T07:23:37;20.00;13.50
67050;DHT22;53955;52.442;13.284;2023-04-06T07:26:04;19.60;13.40
67050;DHT22;53955;52.442;13.284;2023-04-06T07:28:31;19.30;14.50
67050;DHT22;53955;52.442;13.284;2023-04-06T07:30:57;19.20;14.50
67050;DHT22;53955;52.442;13.284;2023-04-06T07:33:24;19.10;14.00
67050;DHT22;53955;52.442;13.284;2023-04-06T07:35:55;18.40;13.70
67050;DHT22;53955;52.442;13.284;2023-04-06T07:38:22;18.20;14.40
67050;DHT22;53955;52.442;13.284;2023-04-06T07:40:50;17.60;15.30
67050;DHT22;53955;52.442;13.284;2023-04-06T07:43:16;16.80;15.80
67050;DHT22;53955;52.442;13.284;2023-04-06T07:45:43;17.10;15.80
67050;DHT22;53955;52.442;13.284;2023-04-06T07:48:09;17.00;17.10
67050;DHT22;53955;52.442;13.284;2023-04-06T07:50:36;17.10;16.10
67050;DHT22;53955;52.442;13.284;2023-04-06T07:53:03;17.30;16.90
67050;DHT22;53955;52.442;13.284;2023-04-06T07:55:29;17.80;15.80
67050;DHT22;53955;52.442;13.284;2023-04-06T07:57:57;17.50;16.70
67050;DHT22;53955;52.442;13.284;2023-04-06T08:00:23;17.10;16.60
67050;DHT22;53955;52.442;13.284;2023-04-06T08:02:50;16.70;17.70
67050;DHT22;53955;52.442;13.284;2023-04-06T08:05:17;16.40;17.50
67050;DHT22;53955;52.442;13.284;2023-04-06T08:07:44;16.10;18.80
67050;DHT22;53955;52.442;13.284;2023-04-06T08:10:10;15.80;19.30
67050;DHT22;53955;52.442;13.284;2023-04-06T08:12:37;16.00;19.00
67050;DHT22;53955;52.442;13.284;2023-04-06T08:15:05;16.10;19.60
67050;DHT22;53955;52.442;13.284;2023-04-06T08:17:31;16.30;18.10
67050;DHT22;53955;52.442;13.284;2023-04-06T08:19:59;16.20;18.60
67050;DHT22;53955;52.442;13.284;2023-04-06T08:22:25;16.40;17.10
67050;DHT22;53955;52.442;13.284;2023-04-06T08:24:52;16.20;19.10
67050;DHT22;53955;52.442;13.284;2023-04-06T08:27:18;16.40;19.20
67050;DHT22;53955;52.442;13.284;2023-04-06T08:29:47;16.60;19.20
67050;DHT22;53955;52.442;13.284;2023-04-06T08:32:15;16.80;16.60
67050;DHT22;53955;52.442;13.284;2023-04-06T08:34:41;16.50;17.20
67050;DHT22;53955;52.442;13.284;2023-04-06T08:37:08;16.40;16.70
67050;DHT22;53955;52.442;13.284;2023-04-06T08:39:35;15.90;17.30
67050;DHT22;53955;52.442;13.284;2023-04-06T08:42:01;16.20;18.70
67050;DHT22;53955;52.442;13.284;2023-04-06T08:44:28;16.90;17.60
67050;DHT22;53955;52.442;13.284;2023-04-06T08:46:55;17.30;15.90
67050;DHT22;53955;52.442;13.284;2023-04-06T08:49:23;17.80;15.80
67050;DHT22;53955;52.442;13.284;2023-04-06T08:51:50;17.60;15.70
67050;DHT22;53955;52.442;13.284;2023-04-06T08:54:17;17.30;14.80
67050;DHT22;53955;52.442;13.284;2023-04-06T08:56:43;16.50;14.20
67050;DHT22;53955;52.442;13.284;2023-04-06T08:59:10;16.10;15.20
67050;DHT22;53955;52.442;13.284;2023-04-06T09:01:38;16.00;16.40
67050;DHT22;53955;52.442;13.284;2023-04-06T09:04:06;16.10;15.00
67050;DHT22;53955;52.442;13.284;2023-04-06T09:06:36;15.80;16.70
67050;DHT22;53955;52.442;13.284;2023-04-06T09:09:03;15.70;15.10
67050;DHT22;53955;52.442;13.284;2023-04-06T09:11:40;15.80;16.60
67050;DHT22;53955;52.442;13.284;2023-04-06T09:14:07;15.70;15.40
67050;DHT22;53955;52.442;13.284;2023-04-06T09:16:38;15.80;14.10
67050;DHT22;53955;52.442;13.284;2023-04-06T09:19:05;15.60;14.40
67050;DHT22;53955;52.442;13.284;2023-04-06T09:21:32;15.70;15.20
67050;DHT22;53955;52.442;13.284;2023-04-06T09:24:01;14.90;16.30
67050;DHT22;53955;52.442;13.284;2023-04-06T09:26:28;14.80;18.10
67050;DHT22;53955;52.442;13.284;2023-04-06T09:28:56;14.90;16.50
67050;DHT22;53955;52.442;13.284;2023-04-06T09:31:24;14.90;16.30
67050;DHT22;53955;52.442;13.284;2023-04-06T09:33:51;15.30;16.40
67050;DHT22;53955;52.442;13.284;2023-04-06T09:36:18;14.90;16.80
67050;DHT22;53955;52.442;13.284;2023-04-06T09:38:51;14.80;17.90
67050;DHT22;53955;52.442;13.284;2023-04-06T09:41:21;14.70;16.60
67050;DHT22;53955;52.442;13.284;2023-04-06T09:43:49;14.70;16.80
67050;DHT22;53955;52.442;13.284;2023-04-06T09:46:15;14.80;16.70
67050;DHT22;53955;52.442;13.284;2023-04-06T09:48:43;14.80;17.00
67050;DHT22;53955;52.442;13.284;2023-04-06T09:51:10;14.50;16.80
67050;DHT22;53955;52.442;13.284;2023-04-06T09:53:38;14.60;17.20
67050;DHT22;53955;52.442;13.284;2023-04-06T09:56:05;14.60;16.10
67050;DHT22;53955;52.442;13.284;2023-04-06T09:58:36;14.80;16.30
67050;DHT22;53955;52.442;13.284;2023-04-06T10:01:05;14.90;16.30
67050;DHT22;53955;52.442;13.284;2023-04-06T10:03:34;15.00;17.00
67050;DHT22;53955;52.442;13.284;2023-04-06T10:06:04;15.20;15.70
67050;DHT22;53955;52.442;13.284;2023-04-06T10:08:32;15.20;15.20
67050;DHT22;53955;52.442;13.284;2023-04-06T10:10:59;15.30;16.20
67050;DHT22;53955;52.442;13.284;2023-04-06T10:13:27;15.30;15.90
67050;DHT22;53955;52.442;13.284;2023-04-06T10:15:55;15.30;14.60
67050;DHT22;53955;52.442;13.284;2023-04-06T10:18:21;15.50;13.80
67050;DHT22;53955;52.442;13.284;2023-04-06T10:20:51;15.10;14.10
67050;DHT22;53955;52.442;13.284;2023-04-06T10:23:24;15.00;13.00
67050;DHT22;53955;52.442;13.284;2023-04-06T10:25:53;15.10;11.10
67050;DHT22;53955;52.442;13.284;2023-04-06T10:28:20;15.10;11.70
67050;DHT22;53955;52.442;13.284;2023-04-06T10:30:47;15.00;11.80
67050;DHT22;53955;52.442;13.284;2023-04-06T10:33:15;14.70;12.80
67050;DHT22;53955;52.442;13.284;2023-04-06T10:35:42;14.30;12.30
67050;DHT22;53955;52.442;13.284;2023-04-06T10:38:09;14.40;12.80
67050;DHT22;53955;52.442;13.284;2023-04-06T10:40:37;14.50;12.70
67050;DHT22;53955;52.442;13.284;2023-04-06T10:43:07;14.60;11.60
67050;DHT22;53955;52.442;13.284;2023-04-06T10:45:34;15.00;11.80
67050;DHT22;53955;52.442;13.284;2023-04-06T10:48:00;15.00;10.40
67050;DHT22;53955;52.442;13.284;2023-04-06T10:50:28;15.10;9.60
67050;DHT22;53955;52.442;13.284;2023-04-06T10:52:58;15.00;10.30
67050;DHT22;53955;52.442;13.284;2023-04-06T10:55:26;14.90;10.70
67050;DHT22;53955;52.442;13.284;2023-04-06T10:57:52;14.80;11.40
67050;DHT22;53955;52.442;13.284;2023-04-06T11:00:19;14.70;12.20
67050;DHT22;53955;52.442;13.284;2023-04-06T11:02:46;14.90;11.50
67050;DHT22;53955;52.442;13.284;2023-04-06T11:05:13;14.90;11.30
67050;DHT22;53955;52.442;13.284;2023-04-06T11:07:41;14.90;10.10
67050;DHT22;53955;52.442;13.284;2023-04-06T11:10:08;14.90;8.70
67050;DHT22;53955;52.442;13.284;2023-04-06T11:12:35;14.80;9.20
67050;DHT22;53955;52.442;13.284;2023-04-06T11:15:03;14.70;9.90
67050;DHT22;53955;52.442;13.284;2023-04-06T11:17:30;14.70;9.80
67050;DHT22;53955;52.442;13.284;2023-04-06T11:19:57;14.80;10.40
67050;DHT22;53955;52.442;13.284;2023-04-06T11:22:24;14.40;10.40
67050;DHT22;53955;52.442;13.284;2023-04-06T11:24:52;14.00;11.20
67050;DHT22;53955;52.442;13.284;2023-04-06T11:27:19;13.90;11.20
67050;DHT22;53955;52.442;13.284;2023-04-06T11:29:46;14.20;11.20
67050;DHT22;53955;52.442;13.284;2023-04-06T11:32:20;14.10;10.90
67050;DHT22;53955;52.442;13.284;2023-04-06T11:34:48;14.20;10.60
67050;DHT22;53955;52.442;13.284;2023-04-06T11:37:14;13.90;12.50
67050;DHT22;53955;52.442;13.284;2023-04-06T11:39:46;14.30;13.50
67050;DHT22;53955;52.442;13.284;2023-04-06T11:42:21;14.50;11.10
67050;DHT22;53955;52.442;13.284;2023-04-06T11:44:50;14.70;10.10
67050;DHT22;53955;52.442;13.284;2023-04-06T11:47:18;14.90;9.20
67050;DHT22;53955;52.442;13.284;2023-04-06T11:49:45;14.80;9.10
67050;DHT22;53955;52.442;13.284;2023-04-06T11:52:17;15.00;10.50
67050;DHT22;53955;52.442;13.284;2023-04-06T11:54:45;15.00;8.60
67050;DHT22;53955;52.442;13.284;2023-04-06T11:57:11;14.80;8.70
67050;DHT22;53955;52.442;13.284;2023-04-06T11:59:39;14.80;8.50
67050;DHT22;53955;52.442;13.284;2023-04-06T12:02:06;14.60;9.80
67050;DHT22;53955;52.442;13.284;2023-04-06T12:04:33;14.70;9.20
67050;DHT22;53955;52.442;13.284;2023-04-06T12:07:00;14.70;9.10
67050;DHT22;53955;52.442;13.284;2023-04-06T12:09:26;14.80;10.00
67050;DHT22;53955;52.442;13.284;2023-04-06T12:11:53;14.70;10.10
67050;DHT22;53955;52.442;13.284;2023-04-06T12:14:21;14.80;9.20
67050;DHT22;53955;52.442;13.284;2023-04-06T12:16:49;14.90;10.10
67050;DHT22;53955;52.442;13.284;2023-04-06T12:19:16;14.80;9.20
67050;DHT22;53955;52.442;13.284;2023-04-06T12:21:42;14.90;9.80
67050;DHT22;53955;52.442;13.284;2023-04-06T12:24:09;14.90;10.10
67050;DHT22;53955;52.442;13.284;2023-04-06T12:26:35;14.90;9.30
67050;DHT22;53955;52.442;13.284;2023-04-06T12:29:02;14.90;11.30
67050;DHT22;53955;52.442;13.284;2023-04-06T12:31:32;14.80;10.60
67050;DHT22;53955;52.442;13.284;2023-04-06T12:34:02;14.50;9.70
67050;DHT22;53955;52.442;13.284;2023-04-06T12:36:29;14.40;9.70
67050;DHT22;53955;52.442;13.284;2023-04-06T12:38:57;14.30;11.10
67050;DHT22;53955;52.442;13.284;2023-04-06T12:41:24;14.50;10.50
67050;DHT22;53955;52.442;13.284;2023-04-06T12:43:50;14.60;10.80
67050;DHT22;53955;52.442;13.284;2023-04-06T12:46:17;14.80;10.30
67050;DHT22;53955;52.442;13.284;2023-04-06T12:48:43;14.30;10.00
67050;DHT22;53955;52.442;13.284;2023-04-06T12:51:12;14.60;11.00
67050;DHT22;53955;52.442;13.284;2023-04-06T12:53:38;14.80;9.80
67050;DHT22;53955;52.442;13.284;2023-04-06T12:56:11;14.80;11.30
67050;DHT22;53955;52.442;13.284;2023-04-06T12:58:38;15.00;11.70
67050;DHT22;53955;52.442;13.284;2023-04-06T13:01:07;15.10;11.10
67050;DHT22;53955;52.442;13.284;2023-04-06T13:03:34;15.30;10.50
67050;DHT22;53955;52.442;13.284;2023-04-06T13:06:01;15.20;10.20
67050;DHT22;53955;52.442;13.284;2023-04-06T13:08:29;15.20;12.30
67050;DHT22;53955;52.442;13.284;2023-04-06T13:10:56;15.30;11.40
67050;DHT22;53955;52.442;13.284;2023-04-06T13:13:24;15.40;12.80
67050;DHT22;53955;52.442;13.284;2023-04-06T13:15:51;15.10;10.70
67050;DHT22;53955;52.442;13.284;2023-04-06T13:18:17;15.10;12.50
67050;DHT22;53955;52.442;13.284;2023-04-06T13:20:44;15.20;12.60
67050;DHT22;53955;52.442;13.284;2023-04-06T13:23:10;15.50;10.30
67050;DHT22;53955;52.442;13.284;2023-04-06T13:25:38;15.50;10.10
67050;DHT22;53955;52.442;13.284;2023-04-06T13:28:05;15.50;8.90
67050;DHT22;53955;52.442;13.284;2023-04-06T13:30:31;15.50;9.00
67050;DHT22;53955;52.442;13.284;2023-04-06T13:32:58;15.30;13.30
67050;DHT22;53955;52.442;13.284;2023-04-06T13:35:25;15.50;9.10
67050;DHT22;53955;52.442;13.284;2023-04-06T13:37:51;15.40;10.30
67050;DHT22;53955;52.442;13.284;2023-04-06T13:40:18;15.50;10.00
67050;DHT22;53955;52.442;13.284;2023-04-06T13:42:47;15.50;9.70
67050;DHT22;53955;52.442;13.284;2023-04-06T13:45:14;15.50;9.30
67050;DHT22;53955;52.442;13.284;2023-04-06T13:47:40;15.70;9.20
67050;DHT22;53955;52.442;13.284;2023-04-06T13:50:07;15.50;9.40
67050;DHT22;53955;52.442;13.284;2023-04-06T13:52:35;15.60;10.40
67050;DHT22;53955;52.442;13.284;2023-04-06T13:55:02;15.60;10.40
67050;DHT22;53955;52.442;13.284;2023-04-06T13:57:29;15.60;9.40
67050;DHT22;53955;52.442;13.284;2023-04-06T13:59:57;15.40;10.00
67050;DHT22;53955;52.442;13.284;2023-04-06T14:02:23;15.40;9.40
67050;DHT22;53955;52.442;13.284;2023-04-06T14:04:52;15.30;11.00
67050;DHT22;53955;52.442;13.284;2023-04-06T14:07:20;15.00;11.10
67050;DHT22;53955;52.442;13.284;2023-04-06T14:09:47;14.70;11.00
67050;DHT22;53955;52.442;13.284;2023-04-06T14:12:14;14.50;11.60
67050;DHT22;53955;52.442;13.284;2023-04-06T14:14:40;14.50;11.90
67050;DHT22;53955;52.442;13.284;2023-04-06T14:17:08;14.80;12.40
67050;DHT22;53955;52.442;13.284;2023-04-06T14:19:35;15.00;12.70
67050;DHT22;53955;52.442;13.284;2023-04-06T14:22:03;15.00;10.90
67050;DHT22;53955;52.442;13.284;2023-04-06T14:24:30;15.10;11.80
67050;DHT22;53955;52.442;13.284;2023-04-06T14:26:56;15.30;11.20
67050;DHT22;53955;52.442;13.284;2023-04-06T14:29:23;15.30;10.40
67050;DHT22;53955;52.442;13.284;2023-04-06T14:31:50;15.20;10.30
67050;DHT22;53955;52.442;13.284;2023-04-06T14:34:18;15.10;10.50
67050;DHT22;53955;52.442;13.284;2023-04-06T14:36:45;15.20;11.00
67050;DHT22;53955;52.442;13.284;2023-04-06T14:39:12;14.60;11.60
67050;DHT22;53955;52.442;13.284;2023-04-06T14:41:38;14.70;11.70
67050;DHT22;53955;52.442;13.284;2023-04-06T14:44:06;14.70;12.90
67050;DHT22;53955;52.442;13.284;2023-04-06T14:46:32;15.00;13.20
67050;DHT22;53955;52.442;13.284;2023-04-06T14:48:59;15.00;12.60
67050;DHT22;53955;52.442;13.284;2023-04-06T14:51:27;14.60;12.60
67050;DHT22;53955;52.442;13.284;2023-04-06T14:53:53;14.60;12.50
67050;DHT22;53955;52.442;13.284;2023-04-06T14:56:21;14.80;13.10
67050;DHT22;53955;52.442;13.284;2023-04-06T14:58:47;14.70;11.50
67050;DHT22;53955;52.442;13.284;2023-04-06T15:01:15;14.40;12.20
67050;DHT22;53955;52.442;13.284;2023-04-06T15:03:41;14.40;13.00
67050;DHT22;53955;52.442;13.284;2023-04-06T15:06:12;14.30;13.50
67050;DHT22;53955;52.442;13.284;2023-04-06T15:08:41;14.60;12.80
67050;DHT22;53955;52.442;13.284;2023-04-06T15:11:08;14.40;13.40
67050;DHT22;53955;52.442;13.284;2023-04-06T15:13:35;14.40;12.60
67050;DHT22;53955;52.442;13.284;2023-04-06T15:16:02;14.30;12.80
67050;DHT22;53955;52.442;13.284;2023-04-06T15:18:28;14.30;13.20
67050;DHT22;53955;52.442;13.284;2023-04-06T15:20:55;14.40;13.60